Airfield :
LOGIN :

Register | Disclaimer

   EN    FR    IT 

 










Legend :    VFR   Marginal VFR   IFR   Intensive IFR   Very Intensive IFR
Visi :
Ceiling :
>= 8 km
>= 3000ft
5 to 8 km
1000 to 3000 ft
1500m to 5 km
500 to 1000 ft
800 to 1500m
200 to 500 ft
< 800m
< 200 ft
Symbols :   Thunderstorms  Fog  Heavy snow  Heavy precipitations  Wind > 20 kt
SIGMETs :     Misc.  Thunderstorms  Icing  Turbulence  Mountain Waves  Volcanic Ashes







- Airport Elevation : 909 ft
- IATA code : KSF


EDVK - Kassel Calden

CURRENT METAR :
  • 211620Z 00000KT 9999 OVC044 00/00 Q1016

EXPIRED METARs :
  • 211550Z VRB01KT 9999 SCT033 OVC044 01/01 Q1016
  • 211520Z 22002KT 9999 SCT014 BKN029 OVC037 01/01 Q1016
  • 211450Z VRB01KT 9999 SCT013 OVC034 01/00 Q1016
  • 211420Z VRB01KT 9999 SCT017 OVC035 02/00 Q1016
  • 211350Z 32002KT 9999 BKN026 OVC034 01/00 Q1015

TAF TAF EDVK
Valid from the 21 at 15:00 until the 22 at 00:00 UTC


211400Z 2115/2124 28005KT 9999 BKN020
BECMG 2116/2120 16005KT
No reported NOTAMs for that airfield.



MET'MAP, your aeronautical weather chart ! - Copyright ORBIFLY December 2007 - Disclaimer

ORBIFLY MET'MAP TEAM :

Programming & Development : Alexandra Zaïnal
Concept & Development : Baudouin d'Aumeries
Co-Development & Prog : Marc-Olivier Méhu
Technical & hardware support : Manuel Goepfert

Contact : metmap@orbifly.com




SOURCES & CREDITS :

   NOAA